»·PEaware :: DLH1196 EDDF-LSZH

DLH1196 :: EDDF-LSZH

FLIGHT INFORMATION

Flight Status: Arrived
Operator:
Lufthansa
More flights by this operator :: More flights under this callsign
Pilot: Tatianna C. (7783)
Aircraft: AIRBUS A320
(A320)
More flights by this aircraft type
Origin: EDDF Frankfurt/Main
Germany
Destination: LSZH Zurich
Switzerland
More flights between these airports :: More routes between these airports
Route: ANEK1A ANEKI Y163 NATOR T723 RILAX RILA1A
File this flight plan on PilotEdge
Remarks:
Altitude:
(Current/Filed)
27,000ft
Speed:
(Current/Filed)
417kts
Departed: 28-Nov-17 12:20 PM
Arrived: 28-Nov-17 01:07 PM
Distance/Time
Traveled:
155nm/0:46
Distance/Time
To Go:
Arrived

Flight Plot

Page will automatically refresh every two minutes.


Map Options




Map Legend


Flown Route
Filed Route
Departure Airport
Arrival Airport
Navaid (VOR, NDB)
Fix

Horizontal Profiles

Position Reports

Time Latitude Longitude Heading Altitude Ground
Speed
28-Nov-17 12:16 50.045304 8.564419 247 372ft 0kts
28-Nov-17 12:17 50.045295 8.564386 247 372ft 1kts
28-Nov-17 12:18 50.044534 8.561196 250 372ft 12kts
28-Nov-17 12:19 50.042333 8.559328 258 372ft 13kts
28-Nov-17 12:20 50.040762 8.552616 250 372ft 19kts
28-Nov-17 12:21 50.038773 8.544202 245 372ft 18kts
28-Nov-17 12:22 50.036713 8.536892 250 372ft 18kts
28-Nov-17 12:23 50.034779 8.528925 248 372ft 8kts
28-Nov-17 12:24 50.033613 8.525898 180 372ft 5kts
28-Nov-17 12:25 50.025485 8.525999 179 373ft 141kts
28-Nov-17 12:26 49.975423 8.528343 178 3240ft 210kts
28-Nov-17 12:27 49.912759 8.532766 178 6326ft 236kts
28-Nov-17 12:28 49.848951 8.537058 180 9425ft 243kts
28-Nov-17 12:29 49.781339 8.541145 186 12403ft 253kts
28-Nov-17 12:30 49.704912 8.531187 189 14030ft 307kts
28-Nov-17 12:31 49.612662 8.519006 188 15189ft 356kts
28-Nov-17 12:32 49.513881 8.505517 190 17079ft 365kts
28-Nov-17 12:33 49.411681 8.492163 189 18818ft 374kts
28-Nov-17 12:34 49.307887 8.479098 190 20400ft 381kts
28-Nov-17 12:35 49.201930 8.465394 190 21832ft 388kts
28-Nov-17 12:36 49.094782 8.451507 191 23140ft 394kts
28-Nov-17 12:37 48.988092 8.421125 199 24304ft 394kts
28-Nov-17 12:38 48.881255 8.384003 198 25294ft 402kts
28-Nov-17 12:39 48.779082 8.348616 198 26172ft 409kts
28-Nov-17 12:40 48.672032 8.309392 197 26897ft 419kts
28-Nov-17 12:41 48.557683 8.267802 197 26903ft 425kts
28-Nov-17 12:42 48.439599 8.255848 175 26900ft 440kts
28-Nov-17 12:43 48.319233 8.285254 176 26887ft 438kts
28-Nov-17 12:44 48.199262 8.314361 175 26885ft 439kts
28-Nov-17 12:45 48.085765 8.392667 156 26913ft 458kts
28-Nov-17 12:46 47.976215 8.485438 156 26884ft 457kts
28-Nov-17 12:47 47.874643 8.596676 146 26887ft 466kts
28-Nov-17 12:48 47.777071 8.715137 147 26937ft 466kts
28-Nov-17 12:49 47.682325 8.829566 147 26910ft 466kts
28-Nov-17 12:50 47.596819 8.973537 116 26910ft 490kts
28-Nov-17 12:51 47.593327 9.173560 69 26934ft 504kts
28-Nov-17 12:52 47.677684 9.319362 23 25970ft 448kts
28-Nov-17 12:53 47.790837 9.350511 344 23673ft 401kts
28-Nov-17 12:54 47.859685 9.260159 269 22404ft 322kts
28-Nov-17 12:55 47.842130 9.133550 255 21532ft 314kts
28-Nov-17 12:56 47.822146 9.007607 255 20862ft 312kts
28-Nov-17 12:57 47.802180 8.882961 255 20159ft 308kts
28-Nov-17 12:58 47.782730 8.762573 255 18610ft 295kts
28-Nov-17 12:59 47.758427 8.648719 250 17059ft 284kts
28-Nov-17 13:00 47.697206 8.590524 175 15412ft 301kts
28-Nov-17 13:01 47.633959 8.674958 133 13759ft 320kts
28-Nov-17 13:02 47.579735 8.776303 134 12148ft 315kts
28-Nov-17 13:03 47.549891 8.895501 99 10489ft 326kts
28-Nov-17 13:04 47.538465 9.023292 117 9292ft 303kts
28-Nov-17 13:05 47.468385 9.054030 187 7960ft 281kts
28-Nov-17 13:06 47.427166 8.981389 275 5952ft 264kts
28-Nov-17 13:07 47.434942 8.874604 277 4902ft 245kts
28-Nov-17 13:08 47.441803 8.782967 276 4514ft 218kts
28-Nov-17 13:09 47.447995 8.693368 274 3172ft 209kts
28-Nov-17 13:10 47.452882 8.623677 272 2211ft 148kts
28-Nov-17 13:11 47.456707 8.568876 272 1422ft 129kts
28-Nov-17 13:12 47.456014 8.552344 156 1384ft 19kts
28-Nov-17 13:13 47.452704 8.556602 93 1384ft 12kts
28-Nov-17 13:14 47.451666 8.558951 186 1384ft 0kts
28-Nov-17 13:15 47.451667 8.558951 186 1384ft 0kts
28-Nov-17 13:16 47.451667 8.558951 186 1384ft 0kts
28-Nov-17 13:17 47.451667 8.558951 186 1384ft 0kts
28-Nov-17 13:18 47.451667 8.558951 186 1384ft 0kts
28-Nov-17 13:19 47.451667 8.558951 186 1384ft 0kts

Navigation Log

Ident Type
Flight plan parsing failed, navigation log unavailable